Time;durP1;ratioP1;P1;durP2;ratioP2;P2;SDS_P1;SDS_P2;PMS_P1;PMS_P2;Temp;Humidity;BMP_temperature;BMP_pressure;BME280_temperature;BME280_humidity;BME280_pressure;Samples;Min_cycle;Max_cycle;Signal;HPM_P1;HPM_P2
2021/04/01 00:01:33;;;;;;;33.50;30.87;;;;;;;;;;5037581;28;20502;-74
2021/04/01 00:04:01;;;;;;;34.47;31.40;;;;;;;;;;5054916;28;20420;-74
2021/04/01 00:06:28;;;;;;;33.43;30.40;;;;;;;;;;5036902;28;20451;-74
2021/04/01 00:08:55;;;;;;;34.50;31.90;;;;;;;;;;5054649;28;20446;-74
2021/04/01 00:11:22;;;;;;;40.23;36.67;;;;;;;;;;5054882;28;20457;-74
2021/04/01 00:13:49;;;;;;;34.00;30.93;;;;;;;;;;5054918;28;20434;-74
2021/04/01 00:16:19;;;;;;;33.83;31.03;;;;;;;;;;5054618;28;20921;-74
2021/04/01 00:18:46;;;;;;;33.37;30.47;;;;;;;;;;5021060;28;20488;-74
2021/04/01 00:21:14;;;;;;;34.83;32.00;;;;;;;;;;5054321;28;20488;-74
2021/04/01 00:23:41;;;;;;;32.37;29.63;;;;;;;;;;5054383;28;20417;-74
2021/04/01 00:26:08;;;;;;;38.33;35.03;;;;;;;;;;5054229;28;20962;-74
2021/04/01 00:28:35;;;;;;;32.23;29.60;;;;;;;;;;5054205;28;20435;-74
2021/04/01 00:31:02;;;;;;;32.07;29.47;;;;;;;;;;5054498;28;20795;-74
2021/04/01 00:33:29;;;;;;;33.70;30.93;;;;;;;;;;5054235;28;20495;-74
2021/04/01 00:35:56;;;;;;;34.33;31.70;;;;;;;;;;5054170;28;20443;-74
2021/04/01 00:38:24;;;;;;;35.23;32.30;;;;;;;;;;5036851;28;20439;-74
2021/04/01 00:40:51;;;;;;;34.90;32.00;;;;;;;;;;5054039;28;20474;-73
2021/04/01 00:43:18;;;;;;;33.90;30.80;;;;;;;;;;5036515;28;20469;-74
2021/04/01 00:45:44;;;;;;;36.07;32.97;;;;;;;;;;5054013;28;20443;-74
2021/04/01 00:48:12;;;;;;;33.13;30.53;;;;;;;;;;5054256;28;20409;-74
2021/04/01 00:50:39;;;;;;;33.77;30.90;;;;;;;;;;5055036;28;20762;-74
2021/04/01 00:53:06;;;;;;;34.43;31.37;;;;;;;;;;5036665;28;20489;-74
2021/04/01 00:55:33;;;;;;;32.67;30.07;;;;;;;;;;5053839;28;20410;-74
2021/04/01 00:58:01;;;;;;;33.87;30.80;;;;;;;;;;5053963;28;20434;-74
2021/04/01 01:00:30;;;;;;;41.30;37.30;;;;;;;;;;5053485;28;20954;-74
2021/04/01 01:02:57;;;;;;;44.00;39.50;;;;;;;;;;5036770;28;20433;-74
2021/04/01 01:05:25;;;;;;;44.20;39.60;;;;;;;;;;5019883;28;20512;-74
2021/04/01 01:07:52;;;;;;;53.67;48.17;;;;;;;;;;5036244;28;20450;-74
2021/04/01 01:10:25;;;;;;;45.90;41.17;;;;;;;;;;5036142;28;20444;-74
2021/04/01 01:12:53;;;;;;;37.37;34.37;;;;;;;;;;5053854;28;20461;-74
2021/04/01 01:15:22;;;;;;;34.80;31.70;;;;;;;;;;5053950;28;20424;-74
2021/04/01 01:17:50;;;;;;;34.90;31.80;;;;;;;;;;5035441;28;20445;-74
2021/04/01 01:20:18;;;;;;;35.40;32.40;;;;;;;;;;5053451;28;20449;-74
2021/04/01 01:22:45;;;;;;;41.40;37.50;;;;;;;;;;5053405;28;20447;-74
2021/04/01 01:25:15;;;;;;;35.27;31.67;;;;;;;;;;5053457;28;20430;-74
2021/04/01 01:27:42;;;;;;;35.87;32.70;;;;;;;;;;5035535;28;20426;-74
2021/04/01 01:30:10;;;;;;;34.07;31.20;;;;;;;;;;5053730;28;20406;-74
2021/04/01 01:32:39;;;;;;;34.03;31.13;;;;;;;;;;5053568;28;20956;-74
2021/04/01 01:35:07;;;;;;;34.63;31.63;;;;;;;;;;5035781;28;20421;-74
2021/04/01 01:37:34;;;;;;;38.70;34.87;;;;;;;;;;5053095;28;20447;-74
2021/04/01 01:40:01;;;;;;;37.60;34.10;;;;;;;;;;5053240;28;20476;-74
2021/04/01 01:42:28;;;;;;;36.10;32.90;;;;;;;;;;5053593;28;20409;-74
2021/04/01 01:44:55;;;;;;;34.93;31.80;;;;;;;;;;5053604;28;20413;-74
2021/04/01 01:47:22;;;;;;;36.13;32.60;;;;;;;;;;5053515;28;20446;-74
2021/04/01 01:49:49;;;;;;;36.73;33.10;;;;;;;;;;5053168;28;20414;-74
2021/04/01 01:52:16;;;;;;;36.87;33.67;;;;;;;;;;5053691;28;20449;-74
2021/04/01 01:54:43;;;;;;;36.77;33.50;;;;;;;;;;5053469;28;20410;-74
2021/04/01 01:57:10;;;;;;;34.90;32.00;;;;;;;;;;5053207;28;20517;-74
2021/04/01 01:59:38;;;;;;;35.47;32.13;;;;;;;;;;5035633;28;20813;-74
2021/04/01 02:02:05;;;;;;;35.20;32.20;;;;;;;;;;5053234;28;20402;-74
2021/04/01 02:04:32;;;;;;;33.93;31.23;;;;;;;;;;5035398;28;20417;-74
2021/04/01 02:06:59;;;;;;;35.57;32.53;;;;;;;;;;5035861;28;20408;-74
2021/04/01 02:09:26;;;;;;;36.53;33.07;;;;;;;;;;5052928;28;20405;-74
2021/04/01 02:11:53;;;;;;;36.90;33.50;;;;;;;;;;5019231;28;20817;-74
2021/04/01 02:14:20;;;;;;;36.83;33.50;;;;;;;;;;5035408;28;20438;-74
2021/04/01 02:16:48;;;;;;;35.73;32.40;;;;;;;;;;5052937;28;20492;-74
2021/04/01 02:19:15;;;;;;;36.07;32.90;;;;;;;;;;5035390;28;20453;-74
2021/04/01 02:21:42;;;;;;;35.00;32.10;;;;;;;;;;5035396;28;20509;-74
2021/04/01 02:24:09;;;;;;;36.10;32.80;;;;;;;;;;5054019;28;20430;-74
2021/04/01 02:26:36;;;;;;;41.10;37.17;;;;;;;;;;5052632;28;20461;-74
2021/04/01 02:29:03;;;;;;;44.13;40.10;;;;;;;;;;5055839;28;20410;-74
2021/04/01 02:31:30;;;;;;;37.17;34.03;;;;;;;;;;5056521;28;20449;-74
2021/04/01 02:33:57;;;;;;;36.20;32.97;;;;;;;;;;5056885;28;20404;-74
2021/04/01 02:36:24;;;;;;;38.00;34.60;;;;;;;;;;5056515;28;20438;-74
2021/04/01 02:38:51;;;;;;;36.50;33.50;;;;;;;;;;5056345;28;20413;-74
2021/04/01 02:41:18;;;;;;;35.53;32.70;;;;;;;;;;5056317;28;20449;-74
2021/04/01 02:43:45;;;;;;;34.40;31.50;;;;;;;;;;5056635;28;20413;-74
2021/04/01 02:46:13;;;;;;;35.60;32.60;;;;;;;;;;5054837;28;20416;-74
2021/04/01 02:48:40;;;;;;;33.30;30.50;;;;;;;;;;5039074;28;20434;-74
2021/04/01 02:51:08;;;;;;;35.40;32.53;;;;;;;;;;5056360;28;20418;-74
2021/04/01 02:53:35;;;;;;;43.63;39.43;;;;;;;;;;5056181;28;20447;-74
2021/04/01 02:56:02;;;;;;;37.30;34.17;;;;;;;;;;5056187;28;20456;-75
2021/04/01 02:58:29;;;;;;;58.37;46.70;;;;;;;;;;5038195;28;20426;-74
2021/04/01 03:00:56;;;;;;;39.60;36.37;;;;;;;;;;5056388;28;20446;-74
2021/04/01 03:03:26;;;;;;;35.97;33.00;;;;;;;;;;5056102;28;20451;-74
2021/04/01 03:05:55;;;;;;;36.10;33.00;;;;;;;;;;5039038;28;20429;-75
2021/04/01 03:08:23;;;;;;;43.80;39.70;;;;;;;;;;5055887;28;20442;-74
2021/04/01 03:10:50;;;;;;;36.77;33.50;;;;;;;;;;5055858;28;20936;-75
2021/04/01 03:13:16;;;;;;;37.07;33.40;;;;;;;;;;5056878;28;20460;-74
2021/04/01 03:15:43;;;;;;;36.30;32.90;;;;;;;;;;5038241;28;20414;-74
2021/04/01 03:18:10;;;;;;;37.27;34.17;;;;;;;;;;5055610;28;20425;-74
2021/04/01 03:20:37;;;;;;;37.93;34.43;;;;;;;;;;5055399;28;20464;-74
2021/04/01 03:23:04;;;;;;;37.67;34.57;;;;;;;;;;5055647;28;20442;-74
2021/04/01 03:25:32;;;;;;;37.00;33.80;;;;;;;;;;5055536;28;20957;-74
2021/04/01 03:28:00;;;;;;;37.03;33.60;;;;;;;;;;5037776;28;20963;-74
2021/04/01 03:30:27;;;;;;;35.77;32.80;;;;;;;;;;5055543;28;20882;-74
2021/04/01 03:32:55;;;;;;;35.50;32.50;;;;;;;;;;5055595;28;20962;-74
2021/04/01 03:35:23;;;;;;;37.13;33.83;;;;;;;;;;5055678;28;20508;-74
2021/04/01 03:37:54;;;;;;;37.17;33.97;;;;;;;;;;5037573;28;20554;-74
2021/04/01 03:40:21;;;;;;;37.83;34.33;;;;;;;;;;5054148;28;20474;-74
2021/04/01 03:42:49;;;;;;;37.43;33.73;;;;;;;;;;5055226;28;20568;-74
2021/04/01 03:45:16;;;;;;;36.87;33.50;;;;;;;;;;5055190;28;20417;-74
2021/04/01 03:47:44;;;;;;;37.00;33.50;;;;;;;;;;5055525;28;20814;-74
2021/04/01 03:50:12;;;;;;;37.13;33.70;;;;;;;;;;5055061;28;20954;-74
2021/04/01 03:52:39;;;;;;;105.50;73.57;;;;;;;;;;5055044;28;20457;-74
2021/04/01 03:55:14;;;;;;;46.67;41.63;;;;;;;;;;5055340;28;20418;-74
2021/04/01 03:57:42;;;;;;;36.83;33.60;;;;;;;;;;5038590;28;20412;-74
2021/04/01 04:00:13;;;;;;;38.87;35.43;;;;;;;;;;5037354;28;20497;-74
2021/04/01 04:02:53;;;;;;;40.03;36.43;;;;;;;;;;5054562;28;20465;-74
2021/04/01 04:13:32;;;;;;;38.80;35.30;;;;;;;;;;5051957;28;20489;-74
2021/04/01 04:16:00;;;;;;;38.03;34.70;;;;;;;;;;5054972;28;20417;-74
2021/04/01 04:18:27;;;;;;;40.97;37.50;;;;;;;;;;5054865;28;20436;-74
2021/04/01 04:20:54;;;;;;;39.07;35.37;;;;;;;;;;5054413;28;20482;-74
2021/04/01 04:23:22;;;;;;;39.50;36.13;;;;;;;;;;5054728;28;20477;-74
2021/04/01 04:25:49;;;;;;;40.73;37.03;;;;;;;;;;5054372;28;20838;-74
2021/04/01 04:28:25;;;;;;;38.90;35.13;;;;;;;;;;5036384;28;20421;-74
2021/04/01 04:30:52;;;;;;;39.60;36.10;;;;;;;;;;5054298;28;20891;-75
2021/04/01 04:33:20;;;;;;;40.87;37.23;;;;;;;;;;5054509;28;20489;-75
2021/04/01 04:35:47;;;;;;;38.77;35.03;;;;;;;;;;5054640;28;20435;-74
2021/04/01 04:38:13;;;;;;;40.30;36.83;;;;;;;;;;5053958;28;20496;-74
2021/04/01 04:40:41;;;;;;;39.73;36.00;;;;;;;;;;5053969;28;20449;-74
2021/04/01 04:43:08;;;;;;;38.43;35.13;;;;;;;;;;5054538;28;20409;-74
2021/04/01 04:45:35;;;;;;;40.33;36.93;;;;;;;;;;5054353;28;20497;-74
2021/04/01 04:48:02;;;;;;;42.43;38.40;;;;;;;;;;5020181;28;20417;-74
2021/04/01 04:50:30;;;;;;;39.57;36.27;;;;;;;;;;5053734;28;20485;-74
2021/04/01 04:52:57;;;;;;;41.27;37.27;;;;;;;;;;5054609;28;20486;-74
2021/04/01 04:55:25;;;;;;;39.57;35.83;;;;;;;;;;5054114;28;20413;-74
2021/04/01 04:57:54;;;;;;;38.07;34.73;;;;;;;;;;5053670;28;20439;-74
2021/04/01 05:05:49;;;;;;;40.77;36.77;;;;;;;;;;5053967;28;20412;-74
2021/04/01 05:08:17;;;;;;;41.97;38.10;;;;;;;;;;5053587;28;20954;-74
2021/04/01 05:10:44;;;;;;;41.53;37.97;;;;;;;;;;5036216;28;20887;-74
2021/04/01 05:13:11;;;;;;;43.00;38.90;;;;;;;;;;5053491;28;20452;-74
2021/04/01 05:15:40;;;;;;;41.43;37.93;;;;;;;;;;5053467;28;20420;-74
2021/04/01 05:18:22;;;;;;;43.90;39.47;;;;;;;;;;5053247;28;20467;-74
2021/04/01 05:20:51;;;;;;;43.23;39.20;;;;;;;;;;5032625;28;20454;-74
2021/04/01 05:28:57;;;;;;;43.40;39.40;;;;;;;;;;5053707;28;20503;-74
2021/04/01 05:31:25;;;;;;;44.93;40.83;;;;;;;;;;5053631;28;20443;-74
2021/04/01 05:33:51;;;;;;;45.10;40.70;;;;;;;;;;5053304;28;20508;-74
2021/04/01 05:36:22;;;;;;;43.63;39.40;;;;;;;;;;5053292;28;20770;-74
2021/04/01 05:38:51;;;;;;;43.43;39.37;;;;;;;;;;5053324;28;20435;-73
2021/04/01 05:41:18;;;;;;;44.10;39.90;;;;;;;;;;5053616;28;20500;-73
2021/04/01 05:43:50;;;;;;;44.00;39.90;;;;;;;;;;5053596;28;20466;-73
2021/04/01 05:46:21;;;;;;;44.10;40.00;;;;;;;;;;5035735;28;20421;-73
2021/04/01 05:48:57;;;;;;;44.33;39.93;;;;;;;;;;5053545;28;20444;-73
2021/04/01 05:57:23;;;;;;;44.57;40.27;;;;;;;;;;5052607;28;20950;-74
2021/04/01 06:00:20;;;;;;;43.90;39.90;;;;;;;;;;5053434;28;20755;-74
2021/04/01 06:02:59;;;;;;;42.80;38.90;;;;;;;;;;5049773;28;20429;-73
2021/04/01 06:05:26;;;;;;;45.23;41.03;;;;;;;;;;5057394;28;20425;-74
2021/04/01 06:07:54;;;;;;;43.50;39.70;;;;;;;;;;5057294;28;20493;-73
2021/04/01 06:10:22;;;;;;;46.17;41.80;;;;;;;;;;5039437;28;20413;-74
2021/04/01 06:12:49;;;;;;;45.60;40.97;;;;;;;;;;5056850;28;20468;-74
2021/04/01 06:15:19;;;;;;;45.43;41.30;;;;;;;;;;5057132;28;20471;-73
2021/04/01 06:17:47;;;;;;;44.60;40.30;;;;;;;;;;5056379;28;20436;-73
2021/04/01 06:20:14;;;;;;;44.87;41.03;;;;;;;;;;5056666;28;20477;-73
2021/04/01 06:22:42;;;;;;;44.63;40.73;;;;;;;;;;5056766;28;20431;-73
2021/04/01 06:25:12;;;;;;;45.70;41.50;;;;;;;;;;5057080;28;20420;-74
2021/04/01 06:27:42;;;;;;;47.10;42.77;;;;;;;;;;5038618;28;20497;-74
2021/04/01 06:30:13;;;;;;;45.90;41.67;;;;;;;;;;5056675;28;20832;-74
2021/04/01 06:32:43;;;;;;;47.20;43.20;;;;;;;;;;5056440;28;20463;-73
2021/04/01 06:35:12;;;;;;;45.37;41.47;;;;;;;;;;5056856;28;20410;-73
2021/04/01 06:37:56;;;;;;;45.67;41.43;;;;;;;;;;5056420;28;20438;-74
2021/04/01 06:40:24;;;;;;;45.17;41.17;;;;;;;;;;5056666;28;20448;-74
2021/04/01 06:42:54;;;;;;;45.47;41.47;;;;;;;;;;5056426;28;20409;-73
2021/04/01 06:45:24;;;;;;;46.17;42.07;;;;;;;;;;5056361;28;20438;-73
2021/04/01 06:47:51;;;;;;;46.73;42.23;;;;;;;;;;5055998;28;20624;-73
2021/04/01 06:50:22;;;;;;;47.50;43.20;;;;;;;;;;5056506;28;20450;-73
2021/04/01 06:52:59;;;;;;;45.47;41.43;;;;;;;;;;5056531;28;20545;-73
2021/04/01 06:55:31;;;;;;;47.07;42.83;;;;;;;;;;5056524;28;20441;-73
2021/04/01 06:58:09;;;;;;;48.37;43.67;;;;;;;;;;5055956;28;20449;-73
2021/04/01 07:00:58;;;;;;;48.60;44.20;;;;;;;;;;5056106;28;20416;-74
2021/04/01 07:03:35;;;;;;;51.53;46.53;;;;;;;;;;5056056;28;20435;-74
2021/04/01 07:06:04;;;;;;;46.90;42.60;;;;;;;;;;5056249;28;20434;-73
2021/04/01 07:08:37;;;;;;;49.37;44.97;;;;;;;;;;5055956;28;20413;-74
2021/04/01 07:11:06;;;;;;;49.10;44.50;;;;;;;;;;5056222;28;20874;-73
2021/04/01 07:13:38;;;;;;;49.30;44.60;;;;;;;;;;5055766;28;20992;-74
2021/04/01 07:16:21;;;;;;;49.23;44.60;;;;;;;;;;5055842;28;20792;-73
2021/04/01 07:19:04;;;;;;;48.83;44.50;;;;;;;;;;5056020;28;20438;-73
2021/04/01 07:32:52;;;;;;;50.37;45.50;;;;;;;;;;5039766;28;20517;-74
2021/04/01 07:46:37;;;;;;;52.40;47.63;;;;;;;;;;5055328;28;20786;-73
2021/04/01 07:49:05;;;;;;;53.20;47.50;;;;;;;;;;5055587;28;20530;-74
2021/04/01 07:54:31;;;;;;;54.83;49.13;;;;;;;;;;5112379;27;20525;-72
2021/04/01 07:57:06;;;;;;;55.93;48.03;;;;;;;;;;5111565;28;20407;-72
2021/04/01 07:59:36;;;;;;;56.47;50.63;;;;;;;;;;5111761;28;20411;-72
2021/04/01 08:02:22;;;;;;;55.37;50.10;;;;;;;;;;5111377;28;20905;-72
2021/04/01 08:04:50;;;;;;;55.70;50.00;;;;;;;;;;5111580;28;20527;-72
2021/04/01 08:07:18;;;;;;;55.33;49.80;;;;;;;;;;5111167;28;20432;-72
2021/04/01 08:09:48;;;;;;;53.20;47.77;;;;;;;;;;5111446;28;20440;-72
2021/04/01 08:12:22;;;;;;;55.80;50.40;;;;;;;;;;5111298;28;20820;-72
2021/04/01 08:14:55;;;;;;;59.97;53.50;;;;;;;;;;5111254;28;20440;-72
2021/04/01 08:17:26;;;;;;;56.00;49.90;;;;;;;;;;5110060;28;20489;-71
2021/04/01 08:19:55;;;;;;;56.53;50.87;;;;;;;;;;5110965;28;20445;-71
2021/04/01 08:22:25;;;;;;;58.53;52.40;;;;;;;;;;5111224;28;20414;-72
2021/04/01 08:24:56;;;;;;;55.43;49.73;;;;;;;;;;5109742;28;20406;-72
2021/04/01 08:27:29;;;;;;;58.60;51.90;;;;;;;;;;5111012;28;20415;-72
2021/04/01 08:35:27;;;;;;;58.17;51.53;;;;;;;;;;5112007;28;20481;-71
2021/04/01 08:38:05;;;;;;;58.13;51.87;;;;;;;;;;5110554;28;20957;-71
2021/04/01 08:40:33;;;;;;;62.70;52.27;;;;;;;;;;5109444;28;20474;-71
2021/04/01 08:43:08;;;;;;;58.03;51.70;;;;;;;;;;5110860;28;20432;-71
2021/04/01 08:45:40;;;;;;;55.77;49.70;;;;;;;;;;5109686;28;20754;-71
2021/04/01 08:48:25;;;;;;;57.33;51.40;;;;;;;;;;5110433;28;20431;-72
2021/04/01 08:50:59;;;;;;;60.73;51.93;;;;;;;;;;5110425;28;20411;-72
2021/04/01 08:53:35;;;;;;;62.93;52.40;;;;;;;;;;5110126;28;21008;-73
2021/04/01 08:56:17;;;;;;;59.93;53.43;;;;;;;;;;5110576;28;20494;-72
2021/04/01 08:58:49;;;;;;;59.33;52.77;;;;;;;;;;5110513;28;20416;-71
2021/04/01 09:01:19;;;;;;;57.37;50.43;;;;;;;;;;5109130;28;20420;-71
2021/04/01 09:03:47;;;;;;;61.23;54.13;;;;;;;;;;5108611;28;20446;-71
2021/04/01 09:06:15;;;;;;;64.70;51.53;;;;;;;;;;5096678;28;20413;-71
2021/04/01 09:08:46;;;;;;;61.60;53.27;;;;;;;;;;5096440;28;20764;-72
2021/04/01 09:11:14;;;;;;;56.93;49.93;;;;;;;;;;5096568;28;20509;-71
2021/04/01 09:13:48;;;;;;;60.73;51.67;;;;;;;;;;5096285;28;20451;-71
2021/04/01 09:16:19;;;;;;;63.20;52.60;;;;;;;;;;5096378;28;20492;-72
2021/04/01 09:18:46;;;;;;;61.23;52.77;;;;;;;;;;5095146;28;20852;-71
2021/04/01 09:21:14;;;;;;;65.67;51.90;;;;;;;;;;5096468;28;20423;-72
2021/04/01 09:23:42;;;;;;;59.67;53.27;;;;;;;;;;5095189;28;21010;-72
2021/04/01 09:26:09;;;;;;;61.27;51.37;;;;;;;;;;5095926;28;20513;-72
2021/04/01 09:28:38;;;;;;;64.30;54.20;;;;;;;;;;5096297;28;20415;-72
2021/04/01 09:31:07;;;;;;;64.93;53.70;;;;;;;;;;5096371;28;20495;-71
2021/04/01 09:33:35;;;;;;;58.50;52.20;;;;;;;;;;5096227;28;20452;-71
2021/04/01 09:36:09;;;;;;;61.10;51.33;;;;;;;;;;5096304;28;20408;-71
2021/04/01 09:38:37;;;;;;;66.83;53.00;;;;;;;;;;5095879;28;20919;-72
2021/04/01 09:41:04;;;;;;;64.30;54.40;;;;;;;;;;5096082;28;20458;-70
2021/04/01 09:43:31;;;;;;;59.43;52.70;;;;;;;;;;5096696;28;20766;-70
2021/04/01 09:46:09;;;;;;;61.67;53.33;;;;;;;;;;5096184;28;20808;-71
2021/04/01 09:48:38;;;;;;;65.57;55.03;;;;;;;;;;5095678;28;20409;-71
2021/04/01 09:51:15;;;;;;;62.67;51.23;;;;;;;;;;5095988;28;20878;-72
2021/04/01 09:53:50;;;;;;;63.60;53.33;;;;;;;;;;5093712;28;20496;-72
2021/04/01 09:56:21;;;;;;;63.57;53.33;;;;;;;;;;5095755;28;20409;-71
2021/04/01 09:58:51;;;;;;;62.60;51.47;;;;;;;;;;5095785;28;20406;-71
2021/04/01 10:01:29;;;;;;;61.47;52.37;;;;;;;;;;5095844;28;20404;-71
2021/04/01 10:03:57;;;;;;;61.03;50.77;;;;;;;;;;5095062;28;20421;-71
2021/04/01 10:06:28;;;;;;;60.77;52.37;;;;;;;;;;5095401;28;20429;-71
2021/04/01 10:09:06;;;;;;;65.23;53.13;;;;;;;;;;5095287;28;20458;-71
2021/04/01 10:11:36;;;;;;;70.07;54.20;;;;;;;;;;5095571;28;20406;-71
2021/04/01 10:14:07;;;;;;;68.50;50.63;;;;;;;;;;5094267;28;20851;-71
2021/04/01 10:16:36;;;;;;;64.73;51.07;;;;;;;;;;5094218;28;20416;-71
2021/04/01 10:19:04;;;;;;;63.27;50.00;;;;;;;;;;5095332;28;20415;-71
2021/04/01 10:21:31;;;;;;;57.50;50.50;;;;;;;;;;5095413;28;20438;-71
2021/04/01 10:23:59;;;;;;;67.47;53.43;;;;;;;;;;5094228;28;20421;-71
2021/04/01 10:26:31;;;;;;;65.40;50.13;;;;;;;;;;5095192;28;20407;-71
2021/04/01 10:29:00;;;;;;;67.93;53.50;;;;;;;;;;5094921;28;20471;-71
2021/04/01 10:31:27;;;;;;;78.03;57.50;;;;;;;;;;5093935;28;20433;-71
2021/04/01 10:34:02;;;;;;;76.83;55.80;;;;;;;;;;5095103;28;20452;-71
2021/04/01 10:36:29;;;;;;;78.13;57.97;;;;;;;;;;5094783;28;20409;-71
2021/04/01 10:39:06;;;;;;;81.17;58.03;;;;;;;;;;5095843;28;20435;-71
2021/04/01 10:41:34;;;;;;;79.23;59.10;;;;;;;;;;5095078;28;20746;-72
2021/04/01 10:44:01;;;;;;;75.33;56.87;;;;;;;;;;5093820;28;20472;-71
2021/04/01 10:46:30;;;;;;;76.93;58.70;;;;;;;;;;5093740;28;20513;-71
2021/04/01 10:49:02;;;;;;;80.73;58.70;;;;;;;;;;5094823;28;20433;-72
2021/04/01 10:51:29;;;;;;;78.87;56.13;;;;;;;;;;5094666;28;20421;-71
2021/04/01 10:53:56;;;;;;;76.70;58.37;;;;;;;;;;5094219;28;20544;-72
2021/04/01 10:56:24;;;;;;;82.63;61.60;;;;;;;;;;5094354;28;20405;-71
2021/04/01 10:58:51;;;;;;;83.80;61.07;;;;;;;;;;5094658;28;20404;-74
2021/04/01 11:01:20;;;;;;;85.73;62.03;;;;;;;;;;5092689;28;20439;-70
2021/04/01 11:03:48;;;;;;;88.90;63.13;;;;;;;;;;5092135;28;20442;-70
2021/04/01 11:06:16;;;;;;;86.03;63.53;;;;;;;;;;5094497;28;20519;-70
2021/04/01 11:08:44;;;;;;;84.83;65.40;;;;;;;;;;5089193;28;20427;-70
2021/04/01 11:11:12;;;;;;;91.57;67.97;;;;;;;;;;5076206;28;20418;-70
2021/04/01 11:13:40;;;;;;;89.00;65.90;;;;;;;;;;5073752;28;20491;-71
2021/04/01 11:16:07;;;;;;;75.97;59.57;;;;;;;;;;5072889;28;20418;-71
2021/04/01 11:18:35;;;;;;;89.97;61.87;;;;;;;;;;5072522;28;20935;-71
2021/04/01 11:21:05;;;;;;;83.73;63.80;;;;;;;;;;5074105;28;20413;-70
2021/04/01 11:23:34;;;;;;;92.83;68.50;;;;;;;;;;5073889;28;20418;-70
2021/04/01 11:26:01;;;;;;;91.57;69.83;;;;;;;;;;5072248;28;20433;-71
2021/04/01 11:28:35;;;;;;;95.40;69.00;;;;;;;;;;5073686;28;20440;-71
2021/04/01 11:31:02;;;;;;;98.27;71.57;;;;;;;;;;5074027;28;20426;-70
2021/04/01 11:33:29;;;;;;;96.13;71.57;;;;;;;;;;5073525;28;20450;-70
2021/04/01 11:36:06;;;;;;;92.37;65.27;;;;;;;;;;5073668;28;20447;-70
2021/04/01 11:38:39;;;;;;;99.80;68.57;;;;;;;;;;5073852;28;20548;-70
2021/04/01 11:41:09;;;;;;;95.63;70.83;;;;;;;;;;5073361;28;20456;-70
2021/04/01 11:43:36;;;;;;;91.90;64.77;;;;;;;;;;5073893;28;20463;-70
2021/04/01 11:46:13;;;;;;;86.47;65.30;;;;;;;;;;5073409;28;20436;-70
2021/04/01 11:48:40;;;;;;;84.43;63.60;;;;;;;;;;5073377;28;20785;-70
2021/04/01 11:51:08;;;;;;;86.00;63.43;;;;;;;;;;5073324;28;20438;-70
2021/04/01 11:53:37;;;;;;;81.83;61.67;;;;;;;;;;5055501;28;20466;-70
2021/04/01 11:56:04;;;;;;;73.80;56.00;;;;;;;;;;5073538;28;20942;-71
2021/04/01 11:58:32;;;;;;;63.00;52.37;;;;;;;;;;5073345;28;20844;-71
2021/04/01 12:01:03;;;;;;;57.43;49.10;;;;;;;;;;5072161;28;20938;-71
2021/04/01 12:03:37;;;;;;;52.30;46.57;;;;;;;;;;5073639;28;20463;-70
2021/04/01 12:06:04;;;;;;;52.27;46.90;;;;;;;;;;5073645;28;20422;-71
2021/04/01 12:08:31;;;;;;;51.83;46.17;;;;;;;;;;5072065;28;20476;-71
2021/04/01 12:10:59;;;;;;;51.83;46.30;;;;;;;;;;5073285;28;20792;-72
2021/04/01 12:13:26;;;;;;;50.83;43.93;;;;;;;;;;5073932;28;20475;-71
2021/04/01 12:15:53;;;;;;;47.57;42.87;;;;;;;;;;5071936;28;20896;-71
2021/04/01 12:18:20;;;;;;;45.67;41.23;;;;;;;;;;5073034;28;20428;-70
2021/04/01 12:20:49;;;;;;;44.27;39.63;;;;;;;;;;5073483;28;20460;-71
2021/04/01 12:23:19;;;;;;;41.60;37.47;;;;;;;;;;5073127;28;20475;-71
2021/04/01 12:25:46;;;;;;;40.73;37.10;;;;;;;;;;5073209;28;20435;-71
2021/04/01 12:28:21;;;;;;;37.40;34.10;;;;;;;;;;5072932;28;20437;-70
2021/04/01 12:30:49;;;;;;;33.80;30.80;;;;;;;;;;5073022;28;20418;-70
2021/04/01 12:33:18;;;;;;;35.87;32.50;;;;;;;;;;5073343;28;20454;-71
2021/04/01 12:35:52;;;;;;;34.50;31.27;;;;;;;;;;5073439;28;20503;-71
2021/04/01 12:38:28;;;;;;;34.10;31.37;;;;;;;;;;5071749;28;20404;-70
2021/04/01 12:40:55;;;;;;;34.77;31.83;;;;;;;;;;5075979;28;20983;-71
2021/04/01 12:43:29;;;;;;;34.27;31.20;;;;;;;;;;5076549;28;20426;-71
2021/04/01 12:45:56;;;;;;;32.63;29.83;;;;;;;;;;5076734;28;20434;-71
2021/04/01 12:48:23;;;;;;;32.77;29.57;;;;;;;;;;5076621;28;20887;-70
2021/04/01 12:50:53;;;;;;;28.40;25.90;;;;;;;;;;5076965;28;20462;-71
2021/04/01 12:53:23;;;;;;;30.37;27.90;;;;;;;;;;5076414;28;20555;-70
2021/04/01 12:55:53;;;;;;;28.23;26.17;;;;;;;;;;5076406;28;20779;-70
2021/04/01 12:58:30;;;;;;;29.37;26.60;;;;;;;;;;5076232;28;20534;-71
2021/04/01 13:01:01;;;;;;;29.03;26.67;;;;;;;;;;5076802;28;20757;-71
2021/04/01 13:03:28;;;;;;;28.63;26.63;;;;;;;;;;5076649;28;20443;-70
2021/04/01 13:05:58;;;;;;;27.70;25.50;;;;;;;;;;5075388;28;20771;-71
2021/04/01 13:11:15;;;;;;;27.30;25.10;;;;;;;;;;5076241;28;20425;-71
2021/04/01 13:13:43;;;;;;;27.80;25.50;;;;;;;;;;5076410;28;20540;-75
2021/04/01 13:16:10;;;;;;;27.90;25.67;;;;;;;;;;5076461;28;20469;-70
2021/04/01 13:18:37;;;;;;;26.33;24.40;;;;;;;;;;5076312;28;20891;-70
2021/04/01 13:21:05;;;;;;;26.67;24.90;;;;;;;;;;5076400;28;20955;-71
2021/04/01 13:23:42;;;;;;;26.10;24.10;;;;;;;;;;5075973;28;20918;-71
2021/04/01 13:26:12;;;;;;;25.10;23.37;;;;;;;;;;5075817;28;20474;-71
2021/04/01 13:28:39;;;;;;;25.70;23.90;;;;;;;;;;5076134;28;20436;-70
2021/04/01 13:31:13;;;;;;;26.63;24.53;;;;;;;;;;5076177;28;20445;-70
2021/04/01 13:33:47;;;;;;;26.63;24.67;;;;;;;;;;5074634;28;20581;-74
2021/04/01 13:36:18;;;;;;;26.40;24.70;;;;;;;;;;5076106;28;20409;-71
2021/04/01 13:38:45;;;;;;;26.00;24.33;;;;;;;;;;5076291;28;20452;-71
2021/04/01 13:41:16;;;;;;;27.00;24.80;;;;;;;;;;5074730;28;20445;-71
2021/04/01 13:43:44;;;;;;;26.63;24.93;;;;;;;;;;5075972;28;20974;-74
2021/04/01 13:46:11;;;;;;;26.73;24.93;;;;;;;;;;5075920;28;20416;-75
2021/04/01 13:48:39;;;;;;;26.37;24.27;;;;;;;;;;5075485;28;20919;-75
2021/04/01 13:51:12;;;;;;;24.57;22.97;;;;;;;;;;5075499;28;20411;-78
2021/04/01 13:56:25;;;;;;;25.07;23.40;;;;;;;;;;5077636;28;20442;-76
2021/04/01 14:09:57;;;;;;;24.87;23.33;;;;;;;;;;5072934;28;20392;-73
2021/04/01 14:12:25;;;;;;;25.00;23.50;;;;;;;;;;5075358;28;20743;-72
2021/04/01 14:14:52;;;;;;;25.37;23.77;;;;;;;;;;5075317;28;20544;-74
2021/04/01 14:17:20;;;;;;;25.33;23.70;;;;;;;;;;5074036;28;20421;-77
2021/04/01 14:19:47;;;;;;;25.97;24.07;;;;;;;;;;5075440;28;20405;-74
2021/04/01 14:22:14;;;;;;;26.30;24.70;;;;;;;;;;5075106;28;20472;-75
2021/04/01 14:24:44;;;;;;;25.73;24.23;;;;;;;;;;5075106;28;20495;-74
2021/04/01 14:27:22;;;;;;;24.47;22.97;;;;;;;;;;5073422;28;20809;-71
2021/04/01 14:29:55;;;;;;;26.40;24.67;;;;;;;;;;5075053;28;20414;-72
2021/04/01 14:32:23;;;;;;;25.13;23.33;;;;;;;;;;5074797;28;20475;-74
2021/04/01 14:34:50;;;;;;;24.93;23.13;;;;;;;;;;5074586;28;20512;-74
2021/04/01 14:37:21;;;;;;;25.93;24.23;;;;;;;;;;5074939;28;20501;-73
2021/04/01 14:39:54;;;;;;;24.93;23.47;;;;;;;;;;5076903;28;20444;-74
2021/04/01 14:42:28;;;;;;;25.53;23.63;;;;;;;;;;5074854;28;20486;-74
2021/04/01 14:44:55;;;;;;;26.37;24.60;;;;;;;;;;5074709;28;20508;-74
2021/04/01 14:47:24;;;;;;;25.50;23.97;;;;;;;;;;5074362;28;20923;-74
2021/04/01 14:49:53;;;;;;;25.33;23.77;;;;;;;;;;5073226;28;20953;-75
2021/04/01 14:52:22;;;;;;;25.97;24.27;;;;;;;;;;5074313;28;20420;-84
2021/04/01 14:54:50;;;;;;;24.80;23.30;;;;;;;;;;5074449;28;20490;-76
2021/04/01 14:57:17;;;;;;;24.23;22.83;;;;;;;;;;5056469;28;20930;-74
2021/04/01 14:59:46;;;;;;;25.07;23.20;;;;;;;;;;5074672;28;20455;-74
2021/04/01 15:02:14;;;;;;;24.90;23.20;;;;;;;;;;5073972;28;20441;-75
2021/04/01 15:04:43;;;;;;;24.30;22.50;;;;;;;;;;5073168;28;20431;-75
2021/04/01 15:07:10;;;;;;;24.90;23.50;;;;;;;;;;5074299;28;20439;-73
2021/04/01 15:09:37;;;;;;;23.87;22.47;;;;;;;;;;5073831;28;20450;-75
2021/04/01 15:12:04;;;;;;;23.83;22.43;;;;;;;;;;5074343;28;20467;-73
2021/04/01 15:14:32;;;;;;;23.70;22.10;;;;;;;;;;5074325;28;20473;-73
2021/04/01 15:16:59;;;;;;;25.00;23.13;;;;;;;;;;5073742;28;20461;-73
2021/04/01 15:19:28;;;;;;;25.33;23.63;;;;;;;;;;5074130;28;20412;-73
2021/04/01 15:21:56;;;;;;;24.80;23.20;;;;;;;;;;5074143;28;20489;-73
2021/04/01 15:24:22;;;;;;;25.63;23.97;;;;;;;;;;5073991;28;20924;-73
2021/04/01 15:26:49;;;;;;;25.53;23.73;;;;;;;;;;5073674;28;20858;-73
2021/04/01 15:29:16;;;;;;;24.97;23.47;;;;;;;;;;5072532;28;20958;-73
2021/04/01 15:31:45;;;;;;;24.60;23.10;;;;;;;;;;5073758;28;20410;-73
2021/04/01 15:34:12;;;;;;;25.27;23.57;;;;;;;;;;5073582;28;20478;-73
2021/04/01 15:36:39;;;;;;;24.20;22.90;;;;;;;;;;5073591;28;20470;-73
2021/04/01 15:39:07;;;;;;;24.70;23.10;;;;;;;;;;5073883;28;20467;-73
2021/04/01 15:41:36;;;;;;;26.63;24.63;;;;;;;;;;5073895;28;20421;-73